Řízení letového provozu České republiky  
Aktualizace dat:  16.12.2017 22:08:12 UTC English version
   METEO Zobrazení stránky:  16.12.2017 22:18:07 UTC  
vysvětlivky
METAR EDDB 162150Z 25007KT 9999 BKN032 01/01 Q1010 TEMPO BKN012=
METAR EDDC 162150Z 25006KT 220V280 4800 -SN SCT004 BKN009 01/00 Q1011 R04/29//95=
METAR EDDE 162150Z 25011KT 9999 BKN040 01/M00 Q1013=
METAR EDDF 162150Z 24007KT 9999 FEW023 BKN033 02/01 Q1017 R88/2///95 NOSIG=
METAR EDDM 162150Z 24010KT 9000 -SHSN FEW008 FEW025CB BKN055 00/M01 Q1016 R88/290095 TEMPO 2000 SHSN BKN010CB=
METAR EDDN 162150Z 28009KT 9999 SCT014 BKN071 02/M00 Q1015 R28/29//95=
METAR EDDP 162150Z 25009KT 9999 SCT020 SCT028 02/01 Q1012 TEMPO BKN012=
METAR EDDT 162150Z 24008KT 9999 -SHRASN BKN014 02/01 Q1010 TEMPO BKN008=
METAR EDQM 161650Z 24007KT 9000 BKN010 OVC049 M00/M02 Q1010=
METAR EPBY 162200Z 26006KT 7000 OVC008 01/M00 Q1009 =
METAR EPGD 162200Z 24006KT 9999 BKN013 01/M00 Q1006 =
METAR EPKK 162200Z VRB02KT 7000 FEW044 BKN050 00/M03 Q1011 =
METAR EPKT 162200Z 20005KT 3100 BR FEW002 BKN038 M00/M02 Q1011 =
METAR EPLL 162200Z 22007KT 5000 -SN BR BKN008 01/M01 Q1009 =
METAR EPPO 162200Z 25006KT 8000 OVC006 02/01 Q1010 R10/29//95 =
METAR EPRZ 162200Z 24005KT 9999 OVC044 01/M02 Q1011 =
METAR EPWA 162200Z 24005KT 210V280 9000 FEW011 BKN023 02/M00 Q1009 TEMPO BKN011=
METAR EPWR 162200Z 26006KT 9999 -SHRA BKN005 FEW010CB 02/M00 Q1011 =
METAR LHBP 162200Z 26004KT CAVOK M02/M02 Q1013 NOSIG=
METAR LHSM 161545Z 08004KT 9999 FEW016 04/02 Q1011=
METAR LKCV 162200Z 24008KT CAVOK 01/M01 Q1012 NOSIG=
METAR LKKB 162200Z 24009KT CAVOK 02/M02 Q1013=
METAR LKKU NIL
METAR LKKV 162200Z 25009KT 9999 SCT006 OVC015 M01/M01 Q1012 R29/////// RMK REG QNH 1008=
METAR LKLN 162200Z AUTO 24005KT 210V280 9999 BKN069 01/M01 Q1013=
METAR LKMT 162200Z 20006KT CAVOK 01/M02 Q1012 NOSIG RMK REG QNH 1008=
METAR LKNA 162200Z 27009KT CAVOK M01/M02 Q1012=
METAR LKPD 162200Z 23006KT 9999 FEW040 BKN070 M00/M01 Q1012=
METAR LKPR 162200Z 23011KT CAVOK 01/M02 Q1012 NOSIG RMK REG QNH 1008=
METAR LKTB 162200Z VRB02KT 9999 BKN033 00/M02 Q1013 NOSIG RMK REG QNH 1008=
METAR LKVO NIL
METAR LOWI 162150Z 00000KT 9999 SCT006 SCT015 BKN070 00/M01 Q1016 R88/////// NOSIG=
METAR LOWL 162150Z AUTO 24007KT 9999 FEW022 SCT024 BKN080 01/M01 Q1016 R08/19//95 TEMPO 2000 SHSN BKN012=
METAR LOWS 162150Z 31005KT 8000 -SN FEW006 SCT014 BKN025 01/M01 Q1016=
METAR LOWW 162150Z 30004KT 9999 FEW015 SCT022 BKN060 03/00 Q1014 NOSIG=
METAR LZIB 162200Z 05003KT 310V080 CAVOK 01/M01 Q1014=
METAR LZKZ 162200Z 06004KT 9999 BKN043 M01/M02 Q1012=
METAR LZPP 162200Z AUTO 08002KT 1700 BR NCD M03/M04 Q1013=
METAR LZSL 162200Z 11002KT CAVOK M07/M08 Q1012=
METAR LZTT 162200Z 28006KT 9999 FEW026 M10/M12 Q1010=
METAR LZZI 162200Z VRB02KT 2200 BR FEW005 M01/M02 Q1012=
METAR URRP 162200Z 11008MPS 8000 BKN003 05/04 Q1018 R05/CLRD70 TEMPO 13010G17MPS 1000 BR RMK QBB090 OBST OBSC QFE759/1012=